sensor_id;sensor_type;location;lat;lon;timestamp;pressure;altitude;pressure_sealevel;temperature;humidity
13124;BME280;6627;50.920;12.050;2024-03-07T00:01:37;98930.34;;;15.52;38.71
13124;BME280;6627;50.920;12.050;2024-03-07T00:04:07;98965.09;;;15.81;38.37
13124;BME280;6627;50.920;12.050;2024-03-07T00:06:37;98848.56;;;15.64;37.41
13124;BME280;6627;50.920;12.050;2024-03-07T00:09:07;98949.44;;;16.11;37.49
13124;BME280;6627;50.920;12.050;2024-03-07T00:11:35;98821.34;;;14.87;39.06
13124;BME280;6627;50.920;12.050;2024-03-07T00:14:04;98786.03;;;14.53;39.46
13124;BME280;6627;50.920;12.050;2024-03-07T00:16:33;98830.16;;;14.84;39.21
13124;BME280;6627;50.920;12.050;2024-03-07T00:19:06;98865.59;;;14.93;39.62
13124;BME280;6627;50.920;12.050;2024-03-07T00:21:34;98830.88;;;14.64;39.82
13124;BME280;6627;50.920;12.050;2024-03-07T00:24:06;98844.50;;;14.64;40.22
13124;BME280;6627;50.920;12.050;2024-03-07T00:26:37;99051.59;;;15.98;38.87
13124;BME280;6627;50.920;12.050;2024-03-07T00:29:07;99013.88;;;16.42;37.29
13124;BME280;6627;50.920;12.050;2024-03-07T00:31:34;98675.94;;;13.81;40.25
13124;BME280;6627;50.920;12.050;2024-03-07T00:34:01;98923.53;;;14.73;40.65
13124;BME280;6627;50.920;12.050;2024-03-07T00:36:29;99022.56;;;15.84;38.79
13124;BME280;6627;50.920;12.050;2024-03-07T00:38:56;98927.81;;;15.47;38.91
13124;BME280;6627;50.920;12.050;2024-03-07T00:41:28;98818.41;;;14.54;40.04
13124;BME280;6627;50.920;12.050;2024-03-07T00:43:57;98884.56;;;14.72;40.01
13124;BME280;6627;50.920;12.050;2024-03-07T00:46:27;98995.59;;;16.12;37.96
13124;BME280;6627;50.920;12.050;2024-03-07T00:48:56;98978.50;;;15.95;38.03
13124;BME280;6627;50.920;12.050;2024-03-07T00:51:23;98957.91;;;15.97;37.89
13124;BME280;6627;50.920;12.050;2024-03-07T00:53:50;98984.81;;;15.86;38.50
13124;BME280;6627;50.920;12.050;2024-03-07T00:56:18;98830.31;;;14.88;39.27
13124;BME280;6627;50.920;12.050;2024-03-07T00:58:47;99035.25;;;16.19;38.21
13124;BME280;6627;50.920;12.050;2024-03-07T01:01:15;98827.06;;;14.95;39.17
13124;BME280;6627;50.920;12.050;2024-03-07T01:03:45;98972.66;;;15.75;38.62
13124;BME280;6627;50.920;12.050;2024-03-07T01:06:15;99093.84;;;16.89;37.01
13124;BME280;6627;50.920;12.050;2024-03-07T01:08:46;98802.63;;;15.07;38.78
13124;BME280;6627;50.920;12.050;2024-03-07T01:11:16;99016.78;;;16.15;38.42
13124;BME280;6627;50.920;12.050;2024-03-07T01:13:43;98887.25;;;15.66;38.13
13124;BME280;6627;50.920;12.050;2024-03-07T01:16:12;99068.19;;;16.94;36.94
13124;BME280;6627;50.920;12.050;2024-03-07T01:18:40;98866.44;;;15.82;37.64
13124;BME280;6627;50.920;12.050;2024-03-07T01:21:07;99010.19;;;16.37;37.82
13124;BME280;6627;50.920;12.050;2024-03-07T01:23:51;98922.41;;;16.18;37.12
13124;BME280;6627;50.920;12.050;2024-03-07T01:26:19;98994.00;;;16.32;37.62
13124;BME280;6627;50.920;12.050;2024-03-07T01:28:50;98876.50;;;15.61;38.16
13124;BME280;6627;50.920;12.050;2024-03-07T01:31:22;98904.44;;;15.58;38.65
13124;BME280;6627;50.920;12.050;2024-03-07T01:33:52;98926.53;;;16.03;37.73
13124;BME280;6627;50.920;12.050;2024-03-07T01:36:36;98845.97;;;15.38;38.46
13124;BME280;6627;50.920;12.050;2024-03-07T01:39:04;98757.28;;;14.64;39.37
13124;BME280;6627;50.920;12.050;2024-03-07T01:41:47;99016.91;;;15.98;39.14
13124;BME280;6627;50.920;12.050;2024-03-07T01:44:14;98876.69;;;15.26;39.57
13124;BME280;6627;50.920;12.050;2024-03-07T01:46:47;98966.19;;;15.80;39.20
13124;BME280;6627;50.920;12.050;2024-03-07T01:49:16;99002.03;;;15.78;39.89
13124;BME280;6627;50.920;12.050;2024-03-07T01:51:47;98966.72;;;15.73;39.45
13124;BME280;6627;50.920;12.050;2024-03-07T01:54:17;99065.09;;;16.53;38.26
13124;BME280;6627;50.920;12.050;2024-03-07T01:56:44;99103.84;;;17.06;37.44
13124;BME280;6627;50.920;12.050;2024-03-07T01:59:12;98992.13;;;16.66;36.94
13124;BME280;6627;50.920;12.050;2024-03-07T02:01:40;98886.69;;;15.81;37.55
13124;BME280;6627;50.920;12.050;2024-03-07T02:04:09;98918.41;;;16.15;37.68
13124;BME280;6627;50.920;12.050;2024-03-07T02:06:52;98932.28;;;16.31;37.46
13124;BME280;6627;50.920;12.050;2024-03-07T02:09:23;98989.53;;;16.49;37.89
13124;BME280;6627;50.920;12.050;2024-03-07T02:11:54;98876.00;;;15.88;38.04
13124;BME280;6627;50.920;12.050;2024-03-07T02:14:24;98845.94;;;15.76;37.83
13124;BME280;6627;50.920;12.050;2024-03-07T02:16:55;98864.44;;;15.62;38.45
13124;BME280;6627;50.920;12.050;2024-03-07T02:19:24;98870.00;;;15.74;38.32
13124;BME280;6627;50.920;12.050;2024-03-07T02:21:53;98993.84;;;16.29;38.78
13124;BME280;6627;50.920;12.050;2024-03-07T02:24:20;98940.53;;;16.44;37.51
13124;BME280;6627;50.920;12.050;2024-03-07T02:26:46;98917.22;;;16.25;37.48
13124;BME280;6627;50.920;12.050;2024-03-07T02:29:33;98913.34;;;16.26;37.26
13124;BME280;6627;50.920;12.050;2024-03-07T02:32:04;98709.72;;;14.53;39.78
13124;BME280;6627;50.920;12.050;2024-03-07T02:34:34;98823.50;;;14.64;40.70
13124;BME280;6627;50.920;12.050;2024-03-07T02:37:05;98813.13;;;14.41;41.67
13124;BME280;6627;50.920;12.050;2024-03-07T02:39:36;98838.28;;;14.29;42.12
13124;BME280;6627;50.920;12.050;2024-03-07T02:42:04;99018.84;;;15.51;41.17
13124;BME280;6627;50.920;12.050;2024-03-07T02:44:32;98964.72;;;14.97;42.09
13124;BME280;6627;50.920;12.050;2024-03-07T02:47:15;98987.72;;;15.34;40.74
13124;BME280;6627;50.920;12.050;2024-03-07T02:49:43;98935.22;;;14.47;42.95
13124;BME280;6627;50.920;12.050;2024-03-07T02:52:15;98988.59;;;15.00;41.94
13124;BME280;6627;50.920;12.050;2024-03-07T02:54:45;98845.53;;;13.81;43.30
13124;BME280;6627;50.920;12.050;2024-03-07T02:57:16;98883.47;;;13.69;44.56
13124;BME280;6627;50.920;12.050;2024-03-07T02:59:44;98959.31;;;13.62;46.01
13124;BME280;6627;50.920;12.050;2024-03-07T03:02:12;99149.25;;;15.19;43.28
13124;BME280;6627;50.920;12.050;2024-03-07T03:04:39;99112.00;;;15.06;43.00
13124;BME280;6627;50.920;12.050;2024-03-07T03:07:06;99104.78;;;14.84;43.77
13124;BME280;6627;50.920;12.050;2024-03-07T03:09:38;99090.97;;;14.63;44.10
13124;BME280;6627;50.920;12.050;2024-03-07T03:12:09;99232.91;;;15.67;43.00
13124;BME280;6627;50.920;12.050;2024-03-07T03:14:39;99234.34;;;15.82;42.85
13124;BME280;6627;50.920;12.050;2024-03-07T03:17:10;99123.84;;;14.18;45.72
13124;BME280;6627;50.920;12.050;2024-03-07T03:19:40;99157.22;;;14.72;44.84
13124;BME280;6627;50.920;12.050;2024-03-07T03:22:10;99229.66;;;15.39;43.65
13124;BME280;6627;50.920;12.050;2024-03-07T03:24:39;99235.28;;;15.25;44.36
13124;BME280;6627;50.920;12.050;2024-03-07T03:27:07;99251.84;;;15.63;43.53
13124;BME280;6627;50.920;12.050;2024-03-07T03:29:34;99234.16;;;15.61;43.23
13124;BME280;6627;50.920;12.050;2024-03-07T03:32:02;99282.81;;;16.11;42.70
13124;BME280;6627;50.920;12.050;2024-03-07T03:34:29;99171.38;;;15.35;43.55
13124;BME280;6627;50.920;12.050;2024-03-07T03:36:58;99250.09;;;15.76;43.36
13124;BME280;6627;50.920;12.050;2024-03-07T03:39:28;99306.94;;;16.09;43.09
13124;BME280;6627;50.920;12.050;2024-03-07T03:41:58;99299.56;;;15.66;44.28
13124;BME280;6627;50.920;12.050;2024-03-07T03:44:25;99254.88;;;15.97;43.07
13124;BME280;6627;50.920;12.050;2024-03-07T03:46:52;99212.31;;;15.18;44.64
13124;BME280;6627;50.920;12.050;2024-03-07T03:49:20;99242.00;;;15.19;44.98
13124;BME280;6627;50.920;12.050;2024-03-07T03:52:03;99226.28;;;15.33;44.62
13124;BME280;6627;50.920;12.050;2024-03-07T03:54:47;99224.19;;;15.22;44.91
13124;BME280;6627;50.920;12.050;2024-03-07T03:57:17;99157.72;;;14.43;46.23
13124;BME280;6627;50.920;12.050;2024-03-07T03:59:47;99288.09;;;15.38;45.51
13124;BME280;6627;50.920;12.050;2024-03-07T04:02:17;99284.56;;;15.29;45.70
13124;BME280;6627;50.920;12.050;2024-03-07T04:04:47;99226.88;;;14.96;46.05
13124;BME280;6627;50.920;12.050;2024-03-07T04:07:17;99279.25;;;15.15;46.22
13124;BME280;6627;50.920;12.050;2024-03-07T04:09:45;99296.44;;;15.33;45.85
13124;BME280;6627;50.920;12.050;2024-03-07T04:12:13;99330.34;;;15.41;46.28
13124;BME280;6627;50.920;12.050;2024-03-07T04:14:43;99439.22;;;16.69;44.41
13124;BME280;6627;50.920;12.050;2024-03-07T04:17:10;99405.59;;;16.68;43.89
13124;BME280;6627;50.920;12.050;2024-03-07T04:19:42;99244.59;;;15.24;45.69
13124;BME280;6627;50.920;12.050;2024-03-07T04:22:13;99394.53;;;15.86;45.90
13124;BME280;6627;50.920;12.050;2024-03-07T04:24:43;99384.75;;;16.03;45.20
13124;BME280;6627;50.920;12.050;2024-03-07T04:27:13;99286.47;;;15.20;46.36
13124;BME280;6627;50.920;12.050;2024-03-07T04:29:41;99347.97;;;14.86;48.27
13124;BME280;6627;50.920;12.050;2024-03-07T04:32:09;99439.72;;;16.27;45.90
13124;BME280;6627;50.920;12.050;2024-03-07T04:34:36;99372.38;;;16.05;45.40
13124;BME280;6627;50.920;12.050;2024-03-07T04:37:03;99305.41;;;15.16;46.88
13124;BME280;6627;50.920;12.050;2024-03-07T04:39:31;99355.75;;;15.50;46.67
13124;BME280;6627;50.920;12.050;2024-03-07T04:42:00;99314.91;;;15.45;46.23
13124;BME280;6627;50.920;12.050;2024-03-07T04:44:30;99283.28;;;14.47;48.65
13124;BME280;6627;50.920;12.050;2024-03-07T04:47:02;99241.06;;;14.35;48.30
13124;BME280;6627;50.920;12.050;2024-03-07T04:49:32;99360.75;;;15.08;48.02
13124;BME280;6627;50.920;12.050;2024-03-07T04:52:02;99270.28;;;14.44;48.35
13124;BME280;6627;50.920;12.050;2024-03-07T04:54:31;99261.53;;;14.02;49.32
13124;BME280;6627;50.920;12.050;2024-03-07T04:57:00;99331.00;;;14.13;49.99
13124;BME280;6627;50.920;12.050;2024-03-07T04:59:27;99303.84;;;13.99;49.54
13124;BME280;6627;50.920;12.050;2024-03-07T05:01:55;99357.88;;;14.51;48.99
13124;BME280;6627;50.920;12.050;2024-03-07T05:04:28;99381.13;;;14.12;50.54
13124;BME280;6627;50.920;12.050;2024-03-07T05:06:57;99413.88;;;14.34;50.41
13124;BME280;6627;50.920;12.050;2024-03-07T05:09:27;99423.16;;;14.78;49.17
13124;BME280;6627;50.920;12.050;2024-03-07T05:11:58;99450.75;;;14.54;50.20
13124;BME280;6627;50.920;12.050;2024-03-07T05:14:25;99488.59;;;15.23;48.81
13124;BME280;6627;50.920;12.050;2024-03-07T05:16:53;99442.19;;;15.63;47.13
13124;BME280;6627;50.920;12.050;2024-03-07T05:19:32;99339.56;;;14.74;48.15
13124;BME280;6627;50.920;12.050;2024-03-07T05:22:00;99469.28;;;15.51;47.86
13124;BME280;6627;50.920;12.050;2024-03-07T05:24:36;99276.53;;;13.91;49.31
13124;BME280;6627;50.920;12.050;2024-03-07T05:27:06;99465.19;;;15.39;48.19
13124;BME280;6627;50.920;12.050;2024-03-07T05:29:36;99377.56;;;15.01;47.97
13124;BME280;6627;50.920;12.050;2024-03-07T05:32:21;99504.31;;;16.06;47.33
13124;BME280;6627;50.920;12.050;2024-03-07T05:34:53;99503.03;;;15.95;47.68
13124;BME280;6627;50.920;12.050;2024-03-07T05:37:20;99389.19;;;15.16;48.14
13124;BME280;6627;50.920;12.050;2024-03-07T05:39:49;99419.53;;;14.92;49.15
13124;BME280;6627;50.920;12.050;2024-03-07T05:42:18;99509.47;;;15.28;49.50
13124;BME280;6627;50.920;12.050;2024-03-07T05:44:45;99476.84;;;15.54;48.48
13124;BME280;6627;50.920;12.050;2024-03-07T05:47:14;99496.78;;;15.63;48.55
13124;BME280;6627;50.920;12.050;2024-03-07T05:49:43;99403.78;;;15.11;48.47
13124;BME280;6627;50.920;12.050;2024-03-07T05:52:14;99527.78;;;15.58;48.88
13124;BME280;6627;50.920;12.050;2024-03-07T05:54:41;99550.41;;;16.56;46.77
13124;BME280;6627;50.920;12.050;2024-03-07T05:57:09;99437.53;;;15.63;47.59
13124;BME280;6627;50.920;12.050;2024-03-07T05:59:38;99455.44;;;15.47;47.99
13124;BME280;6627;50.920;12.050;2024-03-07T06:02:05;99507.75;;;16.46;46.29
13124;BME280;6627;50.920;12.050;2024-03-07T06:04:32;99428.16;;;16.04;46.29
13124;BME280;6627;50.920;12.050;2024-03-07T06:07:00;99490.97;;;15.56;48.55
13124;BME280;6627;50.920;12.050;2024-03-07T06:09:31;99456.88;;;15.45;48.17
13124;BME280;6627;50.920;12.050;2024-03-07T06:12:00;99446.31;;;15.52;47.82
13124;BME280;6627;50.920;12.050;2024-03-07T06:14:30;99436.03;;;15.57;47.43
13124;BME280;6627;50.920;12.050;2024-03-07T06:16:57;99437.84;;;15.22;48.45
13124;BME280;6627;50.920;12.050;2024-03-07T06:19:25;99498.72;;;16.28;46.24
13124;BME280;6627;50.920;12.050;2024-03-07T06:21:53;99436.03;;;16.14;46.12
13124;BME280;6627;50.920;12.050;2024-03-07T06:24:21;99472.19;;;16.29;46.02
13124;BME280;6627;50.920;12.050;2024-03-07T06:26:50;99480.56;;;16.41;45.83
13124;BME280;6627;50.920;12.050;2024-03-07T06:29:26;99548.97;;;17.19;44.68
13124;BME280;6627;50.920;12.050;2024-03-07T06:31:56;99460.81;;;16.35;45.80
13124;BME280;6627;50.920;12.050;2024-03-07T06:34:27;99455.25;;;15.75;47.47
13124;BME280;6627;50.920;12.050;2024-03-07T06:36:57;99482.97;;;16.17;46.47
13124;BME280;6627;50.920;12.050;2024-03-07T06:39:27;99515.16;;;16.63;45.83
13124;BME280;6627;50.920;12.050;2024-03-07T06:41:56;99459.19;;;16.26;45.89
13124;BME280;6627;50.920;12.050;2024-03-07T06:44:24;99566.38;;;17.14;45.27
13124;BME280;6627;50.920;12.050;2024-03-07T06:46:52;99450.16;;;15.99;46.70
13124;BME280;6627;50.920;12.050;2024-03-07T06:49:19;99510.13;;;16.13;47.05
13124;BME280;6627;50.920;12.050;2024-03-07T06:51:49;99413.56;;;14.81;48.96
13124;BME280;6627;50.920;12.050;2024-03-07T06:54:20;99504.44;;;15.83;47.60
13124;BME280;6627;50.920;12.050;2024-03-07T06:56:48;99311.56;;;13.83;49.95
13124;BME280;6627;50.920;12.050;2024-03-07T06:59:20;99493.81;;;15.42;48.42
13124;BME280;6627;50.920;12.050;2024-03-07T07:01:51;99482.75;;;15.16;49.37
13124;BME280;6627;50.920;12.050;2024-03-07T07:04:20;99485.69;;;15.59;48.16
13124;BME280;6627;50.920;12.050;2024-03-07T07:06:49;99367.91;;;14.42;49.34
13124;BME280;6627;50.920;12.050;2024-03-07T07:09:17;99365.69;;;14.66;48.25
13124;BME280;6627;50.920;12.050;2024-03-07T07:11:45;99556.63;;;15.73;48.26
13124;BME280;6627;50.920;12.050;2024-03-07T07:14:31;99508.06;;;16.27;46.04
13124;BME280;6627;50.920;12.050;2024-03-07T07:17:00;99449.63;;;15.88;45.92
13124;BME280;6627;50.920;12.050;2024-03-07T07:19:30;99415.44;;;15.43;46.88
13124;BME280;6627;50.920;12.050;2024-03-07T07:22:00;99431.78;;;15.34;47.12
13124;BME280;6627;50.920;12.050;2024-03-07T07:24:28;99482.53;;;15.75;46.57
13124;BME280;6627;50.920;12.050;2024-03-07T07:26:56;99493.13;;;16.16;45.78
13124;BME280;6627;50.920;12.050;2024-03-07T07:29:23;99509.22;;;16.44;45.37
13124;BME280;6627;50.920;12.050;2024-03-07T07:31:52;99396.53;;;15.55;46.06
13124;BME280;6627;50.920;12.050;2024-03-07T07:34:19;99283.69;;;14.94;46.06
13124;BME280;6627;50.920;12.050;2024-03-07T07:36:49;99432.88;;;15.64;46.32
13124;BME280;6627;50.920;12.050;2024-03-07T07:39:19;99349.25;;;15.28;46.16
13124;BME280;6627;50.920;12.050;2024-03-07T07:41:49;99431.44;;;15.27;46.80
13124;BME280;6627;50.920;12.050;2024-03-07T07:44:19;99433.44;;;15.44;46.60
13124;BME280;6627;50.920;12.050;2024-03-07T07:47:05;99458.63;;;15.80;45.98
13124;BME280;6627;50.920;12.050;2024-03-07T07:49:32;99406.19;;;15.61;45.71
13124;BME280;6627;50.920;12.050;2024-03-07T07:51:59;99429.53;;;15.76;45.63
13124;BME280;6627;50.920;12.050;2024-03-07T07:54:27;99308.19;;;15.51;44.54
13124;BME280;6627;50.920;12.050;2024-03-07T07:57:14;99406.28;;;15.96;44.89
13124;BME280;6627;50.920;12.050;2024-03-07T07:59:44;99506.00;;;16.85;43.52
13124;BME280;6627;50.920;12.050;2024-03-07T08:02:15;99238.78;;;15.17;43.95
13124;BME280;6627;50.920;12.050;2024-03-07T08:04:45;99322.88;;;15.98;42.84
13124;BME280;6627;50.920;12.050;2024-03-07T08:07:13;99252.28;;;15.39;43.32
13124;BME280;6627;50.920;12.050;2024-03-07T08:09:40;99378.63;;;16.40;42.63
13124;BME280;6627;50.920;12.050;2024-03-07T08:12:07;99258.75;;;15.78;42.03
13124;BME280;6627;50.920;12.050;2024-03-07T08:14:35;99242.03;;;15.71;42.67
13124;BME280;6627;50.920;12.050;2024-03-07T08:17:03;99164.66;;;15.50;41.35
13124;BME280;6627;50.920;12.050;2024-03-07T08:19:36;99321.59;;;16.77;40.52
13124;BME280;6627;50.920;12.050;2024-03-07T08:22:04;99243.31;;;16.55;39.74
13124;BME280;6627;50.920;12.050;2024-03-07T08:24:34;99161.56;;;16.24;39.85
13124;BME280;6627;50.920;12.050;2024-03-07T08:27:04;98919.84;;;14.77;40.39
13124;BME280;6627;50.920;12.050;2024-03-07T08:29:32;98942.56;;;14.99;40.57
13124;BME280;6627;50.920;12.050;2024-03-07T08:32:00;98912.81;;;14.42;41.49
13124;BME280;6627;50.920;12.050;2024-03-07T08:34:27;99089.94;;;15.63;40.52
13124;BME280;6627;50.920;12.050;2024-03-07T08:36:55;98989.53;;;15.22;40.40
13124;BME280;6627;50.920;12.050;2024-03-07T08:39:23;98999.19;;;15.10;41.24
13124;BME280;6627;50.920;12.050;2024-03-07T08:41:53;98945.72;;;15.18;39.52
13124;BME280;6627;50.920;12.050;2024-03-07T08:44:23;98948.94;;;15.58;38.09
13124;BME280;6627;50.920;12.050;2024-03-07T08:46:53;98854.66;;;15.02;38.70
13124;BME280;6627;50.920;12.050;2024-03-07T08:49:23;98971.09;;;15.66;38.53
13124;BME280;6627;50.920;12.050;2024-03-07T08:51:51;99066.78;;;16.16;38.90
13124;BME280;6627;50.920;12.050;2024-03-07T08:54:19;98885.16;;;15.63;37.18
13124;BME280;6627;50.920;12.050;2024-03-07T08:56:47;98764.75;;;15.14;37.66
13124;BME280;6627;50.920;12.050;2024-03-07T08:59:15;98876.69;;;15.56;38.07
13124;BME280;6627;50.920;12.050;2024-03-07T09:01:44;98869.63;;;15.25;38.98
13124;BME280;6627;50.920;12.050;2024-03-07T09:04:14;98925.84;;;15.09;40.39
13124;BME280;6627;50.920;12.050;2024-03-07T09:06:46;98942.47;;;15.33;40.07
13124;BME280;6627;50.920;12.050;2024-03-07T09:09:16;98936.38;;;14.72;41.58
13124;BME280;6627;50.920;12.050;2024-03-07T09:11:49;98764.94;;;14.06;40.48
13124;BME280;6627;50.920;12.050;2024-03-07T09:14:16;98870.81;;;13.73;42.86
13124;BME280;6627;50.920;12.050;2024-03-07T09:16:45;98911.19;;;14.06;42.60
13124;BME280;6627;50.920;12.050;2024-03-07T09:19:14;98956.22;;;14.29;42.17
13124;BME280;6627;50.920;12.050;2024-03-07T09:21:46;98856.25;;;13.69;42.29
13124;BME280;6627;50.920;12.050;2024-03-07T09:24:35;98826.59;;;13.59;42.70
13124;BME280;6627;50.920;12.050;2024-03-07T09:27:07;99008.66;;;14.96;40.74
13124;BME280;6627;50.920;12.050;2024-03-07T09:29:37;98860.75;;;14.00;41.02
13124;BME280;6627;50.920;12.050;2024-03-07T09:32:07;98909.28;;;14.67;39.75
13124;BME280;6627;50.920;12.050;2024-03-07T09:34:36;98916.28;;;14.85;39.41
13124;BME280;6627;50.920;12.050;2024-03-07T09:37:04;98767.78;;;14.27;38.54
13124;BME280;6627;50.920;12.050;2024-03-07T09:39:33;98844.16;;;14.74;38.60
13124;BME280;6627;50.920;12.050;2024-03-07T09:42:01;98880.06;;;15.53;36.70
13124;BME280;6627;50.920;12.050;2024-03-07T09:44:33;98819.47;;;15.38;36.48
13124;BME280;6627;50.920;12.050;2024-03-07T09:47:04;98732.47;;;14.86;36.88
13124;BME280;6627;50.920;12.050;2024-03-07T09:49:35;98800.41;;;15.30;36.78
13124;BME280;6627;50.920;12.050;2024-03-07T09:52:07;98850.53;;;15.55;36.63
13124;BME280;6627;50.920;12.050;2024-03-07T09:54:40;98755.13;;;15.08;37.04
13124;BME280;6627;50.920;12.050;2024-03-07T09:57:07;98618.06;;;14.48;36.30
13124;BME280;6627;50.920;12.050;2024-03-07T09:59:41;98740.00;;;15.19;36.30
13124;BME280;6627;50.920;12.050;2024-03-07T10:02:11;98853.66;;;16.16;35.14
13124;BME280;6627;50.920;12.050;2024-03-07T10:04:44;98666.53;;;15.14;35.83
13124;BME280;6627;50.920;12.050;2024-03-07T10:07:15;98555.97;;;14.54;36.13
13124;BME280;6627;50.920;12.050;2024-03-07T10:09:46;98688.81;;;15.16;36.29
13124;BME280;6627;50.920;12.050;2024-03-07T10:12:16;98677.56;;;15.18;35.93
13124;BME280;6627;50.920;12.050;2024-03-07T10:14:56;98517.09;;;14.15;36.43
13124;BME280;6627;50.920;12.050;2024-03-07T10:17:26;98670.50;;;15.37;35.10
13124;BME280;6627;50.920;12.050;2024-03-07T10:19:55;98609.75;;;14.86;35.72
13124;BME280;6627;50.920;12.050;2024-03-07T10:22:26;98739.75;;;15.54;35.36
13124;BME280;6627;50.920;12.050;2024-03-07T10:24:56;98799.25;;;16.02;35.37
13124;BME280;6627;50.920;12.050;2024-03-07T10:27:23;98586.22;;;14.82;35.69
13124;BME280;6627;50.920;12.050;2024-03-07T10:30:13;98570.72;;;14.95;35.24
13124;BME280;6627;50.920;12.050;2024-03-07T10:32:53;98430.34;;;14.05;35.33
13124;BME280;6627;50.920;12.050;2024-03-07T10:35:25;98473.00;;;13.92;35.68
13124;BME280;6627;50.920;12.050;2024-03-07T10:37:56;98485.34;;;14.19;34.88
13124;BME280;6627;50.920;12.050;2024-03-07T10:40:29;98543.16;;;14.46;35.09
13124;BME280;6627;50.920;12.050;2024-03-07T10:42:58;98631.75;;;15.44;33.95
13124;BME280;6627;50.920;12.050;2024-03-07T10:45:30;98535.41;;;14.98;33.61
13124;BME280;6627;50.920;12.050;2024-03-07T10:48:07;98469.78;;;14.82;33.26
13124;BME280;6627;50.920;12.050;2024-03-07T10:50:57;98475.66;;;14.51;34.33
13124;BME280;6627;50.920;12.050;2024-03-07T10:53:49;98491.38;;;14.54;34.30
13124;BME280;6627;50.920;12.050;2024-03-07T10:56:50;98506.66;;;14.68;34.77
13124;BME280;6627;50.920;12.050;2024-03-07T10:59:26;98567.75;;;14.87;34.85
13124;BME280;6627;50.920;12.050;2024-03-07T11:04:50;98565.16;;;14.70;35.53
13124;BME280;6627;50.920;12.050;2024-03-07T11:07:20;98659.81;;;15.32;35.11
13124;BME280;6627;50.920;12.050;2024-03-07T11:09:51;98659.38;;;15.43;35.07
13124;BME280;6627;50.920;12.050;2024-03-07T11:12:21;98601.59;;;15.07;34.90
13124;BME280;6627;50.920;12.050;2024-03-07T11:14:54;98658.25;;;15.44;35.35
13124;BME280;6627;50.920;12.050;2024-03-07T11:17:27;98527.53;;;14.84;34.79
13124;BME280;6627;50.920;12.050;2024-03-07T11:20:20;98652.34;;;15.42;35.28
13124;BME280;6627;50.920;12.050;2024-03-07T11:22:52;98563.41;;;14.86;35.51
13124;BME280;6627;50.920;12.050;2024-03-07T11:25:22;98671.22;;;15.47;35.33
13124;BME280;6627;50.920;12.050;2024-03-07T11:27:55;98613.50;;;15.57;34.00
13124;BME280;6627;50.920;12.050;2024-03-07T11:30:23;98557.88;;;15.16;34.55
13124;BME280;6627;50.920;12.050;2024-03-07T11:32:54;98595.19;;;15.24;35.05
13124;BME280;6627;50.920;12.050;2024-03-07T11:35:49;98468.81;;;14.45;35.31
13124;BME280;6627;50.920;12.050;2024-03-07T11:38:19;98625.72;;;15.38;34.75
13124;BME280;6627;50.920;12.050;2024-03-07T11:40:52;98477.00;;;14.66;34.88
13124;BME280;6627;50.920;12.050;2024-03-07T11:43:27;98649.09;;;15.60;34.18
13124;BME280;6627;50.920;12.050;2024-03-07T11:45:58;98496.28;;;14.61;35.54
13124;BME280;6627;50.920;12.050;2024-03-07T11:48:43;98558.59;;;15.04;35.14
13124;BME280;6627;50.920;12.050;2024-03-07T11:51:13;98558.38;;;14.76;35.98
13124;BME280;6627;50.920;12.050;2024-03-07T11:53:41;98502.22;;;14.33;36.09
13124;BME280;6627;50.920;12.050;2024-03-07T11:56:08;98622.38;;;15.54;35.02
13124;BME280;6627;50.920;12.050;2024-03-07T11:58:44;98590.44;;;15.33;34.97
13124;BME280;6627;50.920;12.050;2024-03-07T12:01:21;98554.16;;;15.00;35.30
13124;BME280;6627;50.920;12.050;2024-03-07T12:03:55;98672.63;;;15.74;35.07
13124;BME280;6627;50.920;12.050;2024-03-07T12:06:25;98591.22;;;15.01;35.75
13124;BME280;6627;50.920;12.050;2024-03-07T12:08:52;98472.31;;;14.87;34.27
13124;BME280;6627;50.920;12.050;2024-03-07T12:11:20;98439.00;;;14.49;34.85
13124;BME280;6627;50.920;12.050;2024-03-07T12:13:47;98587.88;;;15.16;34.70
13124;BME280;6627;50.920;12.050;2024-03-07T12:16:15;98388.06;;;14.41;34.02
13124;BME280;6627;50.920;12.050;2024-03-07T12:18:45;98395.63;;;14.56;33.78
13124;BME280;6627;50.920;12.050;2024-03-07T12:21:17;98518.19;;;15.06;34.13
13124;BME280;6627;50.920;12.050;2024-03-07T12:23:45;98397.91;;;14.33;34.36
13124;BME280;6627;50.920;12.050;2024-03-07T12:26:20;98443.69;;;14.60;34.46
13124;BME280;6627;50.920;12.050;2024-03-07T12:28:53;98602.34;;;15.50;33.98
13124;BME280;6627;50.920;12.050;2024-03-07T12:31:21;98482.16;;;14.80;34.37
13124;BME280;6627;50.920;12.050;2024-03-07T12:34:08;98607.88;;;15.74;33.81
13124;BME280;6627;50.920;12.050;2024-03-07T12:36:37;98529.28;;;15.34;34.02
13124;BME280;6627;50.920;12.050;2024-03-07T12:39:22;98707.44;;;16.10;34.49
13124;BME280;6627;50.920;12.050;2024-03-07T12:41:56;98586.81;;;15.75;34.05
13124;BME280;6627;50.920;12.050;2024-03-07T12:44:26;98512.16;;;15.01;34.92
13124;BME280;6627;50.920;12.050;2024-03-07T12:46:57;98517.47;;;15.09;34.63
13124;BME280;6627;50.920;12.050;2024-03-07T12:49:27;98560.66;;;15.28;34.94
13124;BME280;6627;50.920;12.050;2024-03-07T12:51:56;98493.72;;;14.98;34.51
13124;BME280;6627;50.920;12.050;2024-03-07T12:54:25;98415.03;;;14.75;34.10
13124;BME280;6627;50.920;12.050;2024-03-07T12:56:53;98487.59;;;15.01;34.42
13124;BME280;6627;50.920;12.050;2024-03-07T12:59:22;98533.59;;;15.23;34.21
13124;BME280;6627;50.920;12.050;2024-03-07T13:01:51;98289.44;;;13.60;35.24
13124;BME280;6627;50.920;12.050;2024-03-07T13:04:23;98410.28;;;14.30;35.03
13124;BME280;6627;50.920;12.050;2024-03-07T13:06:56;98356.34;;;14.03;34.91
13124;BME280;6627;50.920;12.050;2024-03-07T13:09:28;98450.94;;;14.56;35.07
13124;BME280;6627;50.920;12.050;2024-03-07T13:12:00;98464.75;;;14.72;34.62
13124;BME280;6627;50.920;12.050;2024-03-07T13:14:29;98442.41;;;14.37;35.39
13124;BME280;6627;50.920;12.050;2024-03-07T13:16:59;98467.69;;;14.67;34.79
13124;BME280;6627;50.920;12.050;2024-03-07T13:19:27;98375.22;;;13.87;35.90
13124;BME280;6627;50.920;12.050;2024-03-07T13:21:56;98571.09;;;15.26;34.36